Time;durP1;ratioP1;P1;durP2;ratioP2;P2;SDS_P1;SDS_P2;PMS_P1;PMS_P2;Temp;Humidity;BMP_temperature;BMP_pressure;BME280_temperature;BME280_humidity;BME280_pressure;Samples;Min_cycle;Max_cycle;Signal;HPM_P1;HPM_P2
2023/03/23 00:00:58;;;;;;;8.70;4.22;;;;;;;-143.48;95.22;118439.88;5073140;28;20047;-67
2023/03/23 00:03:25;;;;;;;7.97;4.30;;;;;;;-143.48;95.21;118439.88;5073086;28;20055;-67
2023/03/23 00:05:51;;;;;;;9.65;4.85;;;;;;;-143.48;94.64;118439.88;5073148;28;20103;-67
2023/03/23 00:08:20;;;;;;;9.20;4.55;;;;;;;-143.48;94.77;118439.88;5073008;28;20103;-68
2023/03/23 00:10:56;;;;;;;11.10;4.03;;;;;;;-143.48;94.62;118439.88;5072041;28;20032;-68
2023/03/23 00:13:25;;;;;;;8.77;3.80;;;;;;;-143.48;94.28;118439.88;5071695;28;20090;-68
2023/03/23 00:15:51;;;;;;;9.50;4.10;;;;;;;-143.48;93.39;118439.88;5073135;28;20107;-67
2023/03/23 00:18:21;;;;;;;8.13;4.30;;;;;;;-143.48;92.99;118439.88;5072895;28;20078;-67
2023/03/23 00:20:50;;;;;;;9.18;3.92;;;;;;;-143.48;92.97;118439.88;5071762;28;20527;-67
2023/03/23 00:23:20;;;;;;;8.60;4.05;;;;;;;-143.48;92.73;118439.88;5073244;28;20028;-67
2023/03/23 00:25:47;;;;;;;9.90;4.22;;;;;;;-143.48;92.29;118439.88;5072934;28;20082;-67
2023/03/23 00:28:14;;;;;;;8.93;3.67;;;;;;;-143.48;92.02;118439.88;5071532;28;20029;-67
2023/03/23 00:30:39;;;;;;;10.18;3.88;;;;;;;-143.48;92.13;118439.88;5072842;28;20056;-67
2023/03/23 00:33:05;;;;;;;9.57;3.90;;;;;;;-143.48;92.55;118439.88;5072971;28;20464;-67
2023/03/23 00:35:33;;;;;;;9.45;4.10;;;;;;;-143.48;92.23;118439.88;5072891;28;20476;-67
2023/03/23 00:37:58;;;;;;;5.97;3.13;;;;;;;-143.48;91.95;118439.88;5071586;28;20025;-67
2023/03/23 00:40:24;;;;;;;11.18;3.67;;;;;;;-143.48;91.80;118439.88;5072749;28;20491;-66
2023/03/23 00:42:49;;;;;;;8.82;3.63;;;;;;;-143.48;91.21;118439.88;5071505;28;20032;-67
2023/03/23 00:45:16;;;;;;;8.60;3.60;;;;;;;-143.48;91.20;118439.88;5071506;28;20020;-67
2023/03/23 00:47:46;;;;;;;6.60;3.40;;;;;;;-143.48;91.59;118439.88;5072632;28;20055;-67
2023/03/23 00:50:13;;;;;;;11.70;3.88;;;;;;;-143.48;90.88;118439.88;5072609;28;20016;-67
2023/03/23 00:52:39;;;;;;;6.85;3.40;;;;;;;-143.48;90.03;118439.88;5071250;28;20068;-67
2023/03/23 00:55:05;;;;;;;6.03;2.88;;;;;;;-143.48;90.30;118439.88;5071399;28;20059;-67
2023/03/23 00:57:31;;;;;;;9.75;3.42;;;;;;;-143.48;90.48;118439.88;5074149;28;20056;-67
2023/03/23 00:59:56;;;;;;;7.20;3.40;;;;;;;-143.48;90.22;118439.88;5076426;28;20503;-68
2023/03/23 01:02:24;;;;;;;8.18;3.63;;;;;;;-143.48;89.98;118439.88;5075084;28;20051;-68
2023/03/23 01:04:52;;;;;;;8.20;3.30;;;;;;;-143.48;89.96;118439.88;5076295;28;20360;-67
2023/03/23 01:07:18;;;;;;;11.98;3.50;;;;;;;-143.48;89.09;118439.88;5076284;28;20059;-68
2023/03/23 01:09:44;;;;;;;5.75;3.10;;;;;;;-143.48;89.81;118439.88;5076378;28;20032;-67
2023/03/23 01:12:10;;;;;;;9.02;3.10;;;;;;;-143.48;88.97;118439.88;5076129;28;20024;-68
2023/03/23 01:14:35;;;;;;;6.72;3.28;;;;;;;-143.48;88.85;118439.88;5074814;28;20033;-69
2023/03/23 01:17:01;;;;;;;5.75;3.03;;;;;;;-143.48;88.75;118439.88;5076095;28;20488;-67
2023/03/23 01:19:26;;;;;;;9.13;3.00;;;;;;;-143.48;88.97;118439.88;5074691;28;20025;-67
2023/03/23 01:21:51;;;;;;;9.65;3.20;;;;;;;-143.48;88.63;118439.88;5075961;28;20502;-67
2023/03/23 01:24:16;;;;;;;6.20;3.10;;;;;;;-143.48;88.74;118439.88;5075950;28;20161;-67
2023/03/23 01:26:42;;;;;;;5.88;3.15;;;;;;;-143.48;89.02;118439.88;5074639;28;20510;-67
2023/03/23 01:29:07;;;;;;;9.02;3.08;;;;;;;-143.48;88.63;118439.88;5075829;28;20037;-67
2023/03/23 01:31:34;;;;;;;8.68;3.03;;;;;;;-143.48;88.63;118439.88;5075768;28;20108;-67
2023/03/23 01:34:00;;;;;;;8.40;3.10;;;;;;;-143.48;89.38;118439.88;5074494;28;20058;-66
2023/03/23 01:36:28;;;;;;;7.32;3.20;;;;;;;-143.48;88.73;118439.88;5075866;28;20060;-66
2023/03/23 01:38:55;;;;;;;7.22;3.15;;;;;;;-143.48;88.21;118439.88;5075734;28;20357;-67
2023/03/23 01:41:21;;;;;;;7.97;3.00;;;;;;;-143.48;88.19;118439.88;5075676;28;20387;-68
2023/03/23 01:44:05;;;;;;;7.32;2.88;;;;;;;-143.48;88.19;118439.88;5075683;28;20021;-68
2023/03/23 01:46:33;;;;;;;8.52;3.05;;;;;;;-143.48;88.82;118439.88;5074361;28;20031;-67
2023/03/23 01:49:07;;;;;;;5.05;2.72;;;;;;;-143.48;88.25;118439.88;5075485;28;20502;-67
2023/03/23 01:51:35;;;;;;;6.78;2.90;;;;;;;-143.48;88.24;118439.88;5075845;28;20056;-68
2023/03/23 01:54:04;;;;;;;6.40;3.08;;;;;;;-143.48;87.81;118439.88;5075204;28;20123;-68
2023/03/23 01:56:37;;;;;;;6.15;2.80;;;;;;;-143.48;87.90;118439.88;5075434;28;20024;-68
2023/03/23 01:59:03;;;;;;;5.93;2.67;;;;;;;-143.48;87.95;118439.88;5075399;28;20365;-67
2023/03/23 02:01:29;;;;;;;8.27;2.63;;;;;;;-143.48;88.04;118439.88;5075451;28;20521;-66
2023/03/23 02:03:56;;;;;;;8.15;2.80;;;;;;;-143.48;88.53;118439.88;5075212;28;20052;-67
2023/03/23 02:06:23;;;;;;;5.93;2.92;;;;;;;-143.48;87.71;118439.88;5075279;28;20426;-67
2023/03/23 02:08:50;;;;;;;5.15;2.88;;;;;;;-143.48;88.28;118439.88;5074353;28;20024;-68
2023/03/23 02:11:18;;;;;;;7.00;2.80;;;;;;;-143.48;88.07;118439.88;5075231;28;20024;-67
2023/03/23 02:13:44;;;;;;;6.32;2.60;;;;;;;-143.48;87.85;118439.88;5075124;28;20024;-67
2023/03/23 02:16:28;;;;;;;6.22;2.75;;;;;;;-143.48;88.46;118439.88;5074978;28;20024;-66
2023/03/23 02:19:31;;;;;;;6.38;2.85;;;;;;;-143.48;88.13;118439.88;5075104;28;20032;-66
2023/03/23 02:22:15;;;;;;;7.75;2.92;;;;;;;-143.48;88.31;118439.88;5073657;28;20032;-67
2023/03/23 02:25:05;;;;;;;5.28;2.95;;;;;;;-143.48;87.86;118439.88;5074756;28;20456;-67
2023/03/23 02:27:44;;;;;;;4.32;2.50;;;;;;;-143.48;87.68;118439.88;5074621;28;20032;-66
2023/03/23 02:30:13;;;;;;;7.38;2.83;;;;;;;-143.48;87.92;118439.88;5074699;28;20028;-66
2023/03/23 02:33:17;;;;;;;5.93;2.67;;;;;;;-143.48;88.07;118439.88;5073427;28;20515;-67
2023/03/23 02:36:08;;;;;;;8.38;2.72;;;;;;;-143.48;88.24;118439.88;5074924;28;20100;-67
2023/03/23 02:38:56;;;;;;;7.00;2.60;;;;;;;-143.48;88.31;118439.88;5068750;28;20040;-67
2023/03/23 02:41:27;;;;;;;6.07;2.50;;;;;;;-143.48;88.25;118439.88;5053923;28;20060;-68
2023/03/23 02:43:54;;;;;;;6.50;3.13;;;;;;;-143.48;88.27;118439.88;5074525;28;20024;-67
2023/03/23 02:46:22;;;;;;;6.57;2.60;;;;;;;-143.48;88.46;118439.88;5074177;28;20028;-67
2023/03/23 02:48:51;;;;;;;5.70;2.83;;;;;;;-143.48;88.50;118439.88;5073068;28;20472;-67
2023/03/23 02:51:20;;;;;;;8.55;3.63;;;;;;;-143.48;88.32;118439.88;5074267;28;20433;-67
2023/03/23 02:53:47;;;;;;;6.75;2.72;;;;;;;-143.48;88.61;118439.88;5074142;28;20040;-67
2023/03/23 02:56:14;;;;;;;5.97;2.90;;;;;;;-143.48;88.58;118439.88;5074293;28;20024;-66
2023/03/23 02:58:40;;;;;;;8.35;3.17;;;;;;;-143.48;88.35;118439.88;5072772;28;20016;-66
2023/03/23 03:01:33;;;;;;;5.53;2.47;;;;;;;-143.48;88.42;118439.88;5074094;28;20031;-67
2023/03/23 03:04:01;;;;;;;5.38;2.42;;;;;;;-143.48;88.43;118439.88;5074217;28;20048;-66
2023/03/23 03:06:58;;;;;;;6.00;2.40;;;;;;;-143.48;88.92;118439.88;5072641;28;20496;-66
2023/03/23 03:09:23;;;;;;;5.57;2.60;;;;;;;-143.48;88.63;118439.88;5073831;28;20103;-66
2023/03/23 03:11:52;;;;;;;4.40;2.40;;;;;;;-143.48;87.74;118439.88;5073962;28;20068;-67
2023/03/23 03:14:26;;;;;;;5.88;2.50;;;;;;;-143.48;88.06;118439.88;5073882;28;20051;-66
2023/03/23 03:17:07;;;;;;;8.20;2.30;;;;;;;-143.48;88.14;118439.88;5073785;28;20055;-66
2023/03/23 03:19:37;;;;;;;5.78;2.45;;;;;;;-143.48;88.03;118439.88;5072415;28;20029;-67
2023/03/23 03:22:04;;;;;;;6.18;2.47;;;;;;;-143.48;87.59;118439.88;5073665;28;20024;-67
2023/03/23 03:24:32;;;;;;;8.45;2.30;;;;;;;-143.48;87.22;118439.88;5072424;28;20033;-67
2023/03/23 03:27:00;;;;;;;4.40;2.30;;;;;;;-143.48;87.43;118439.88;5072383;28;20028;-67
2023/03/23 03:29:30;;;;;;;16.58;2.30;;;;;;;-143.48;87.24;118439.88;5073555;28;20020;-66
2023/03/23 03:31:58;;;;;;;8.05;2.33;;;;;;;-143.48;87.07;118439.88;5073518;28;20044;-67
2023/03/23 03:34:24;;;;;;;4.53;1.88;;;;;;;-143.48;86.67;118439.88;5073561;28;20024;-66
2023/03/23 03:36:52;;;;;;;10.73;2.33;;;;;;;-143.48;86.73;118439.88;5073449;28;20514;-66
2023/03/23 03:39:20;;;;;;;4.30;1.80;;;;;;;-143.48;86.12;118439.88;5073630;28;20024;-67
2023/03/23 03:41:46;;;;;;;9.50;2.55;;;;;;;-143.48;86.92;118439.88;5073330;28;20020;-67
2023/03/23 03:44:12;;;;;;;7.10;2.17;;;;;;;-143.48;87.09;118439.88;5072046;28;20027;-67
2023/03/23 03:46:37;;;;;;;4.03;1.85;;;;;;;-143.48;87.05;118439.88;5073587;28;20048;-67
2023/03/23 03:49:06;;;;;;;7.15;2.17;;;;;;;-143.48;86.68;118439.88;5073505;28;20471;-67
2023/03/23 03:51:33;;;;;;;9.18;2.47;;;;;;;-143.48;88.12;118439.88;5073244;28;20055;-67
2023/03/23 03:53:58;;;;;;;6.40;2.33;;;;;;;-143.48;92.91;118439.88;5071789;28;20118;-68
2023/03/23 03:56:25;;;;;;;9.15;2.28;;;;;;;-143.48;94.48;118439.88;5072057;28;20028;-67
2023/03/23 03:58:51;;;;;;;6.38;2.25;;;;;;;-143.48;96.19;118439.88;5073307;28;20028;-68
2023/03/23 04:01:18;;;;;;;11.38;2.88;;;;;;;-143.48;97.27;118439.88;5071939;28;20369;-68
2023/03/23 04:03:44;;;;;;;6.95;2.40;;;;;;;-143.48;98.25;118439.88;5071866;28;20036;-68
2023/03/23 04:06:12;;;;;;;10.90;2.60;;;;;;;-143.48;99.66;118439.88;5073300;28;20028;-68
2023/03/23 04:08:38;;;;;;;6.47;3.00;;;;;;;-143.48;100.00;118439.88;5073003;28;20016;-67
2023/03/23 04:11:04;;;;;;;7.15;2.50;;;;;;;-143.48;100.00;118439.88;5071859;28;20430;-67
2023/03/23 04:13:30;;;;;;;9.65;2.90;;;;;;;-143.48;100.00;118439.88;5073062;28;20021;-67
2023/03/23 04:15:56;;;;;;;6.80;2.70;;;;;;;-143.48;100.00;118439.88;5073005;28;20028;-67
2023/03/23 04:18:22;;;;;;;10.93;3.50;;;;;;;-143.48;100.00;118439.88;5071636;28;20023;-68
2023/03/23 04:20:48;;;;;;;19.25;3.33;;;;;;;-143.48;100.00;118439.88;5073025;28;20030;-68
2023/03/23 04:23:21;;;;;;;7.90;2.47;;;;;;;-143.48;100.00;118439.88;5073284;28;20495;-68
2023/03/23 04:25:48;;;;;;;5.40;1.95;;;;;;;-143.48;100.00;118439.88;5073081;28;20099;-68
2023/03/23 04:28:16;;;;;;;3.75;1.73;;;;;;;-143.48;100.00;118439.88;5072889;28;20127;-67
2023/03/23 04:30:42;;;;;;;8.82;2.50;;;;;;;-143.48;100.00;118439.88;5072851;28;20491;-67
2023/03/23 04:33:09;;;;;;;6.03;2.60;;;;;;;-143.48;100.00;118439.88;5075556;28;20028;-67
2023/03/23 04:35:34;;;;;;;7.35;2.58;;;;;;;-143.48;100.00;118439.88;5076956;28;20035;-67
2023/03/23 04:37:59;;;;;;;8.85;2.70;;;;;;;-143.48;100.00;118439.88;5076966;28;20044;-67
2023/03/23 04:40:25;;;;;;;8.32;2.60;;;;;;;-143.48;100.00;118439.88;5075541;28;20021;-67
2023/03/23 04:42:51;;;;;;;9.25;2.40;;;;;;;-143.48;100.00;118439.88;5076931;28;20081;-67
2023/03/23 04:45:21;;;;;;;10.25;2.50;;;;;;;-143.48;100.00;118439.88;5076805;28;20027;-67
2023/03/23 04:47:52;;;;;;;13.80;3.00;;;;;;;-143.48;100.00;118439.88;5076662;28;20020;-67
2023/03/23 04:50:21;;;;;;;10.18;2.63;;;;;;;-143.48;99.64;118439.88;5075469;28;20025;-67
2023/03/23 04:52:47;;;;;;;8.10;2.30;;;;;;;-143.48;98.26;118439.88;5076465;28;20484;-68
2023/03/23 04:55:13;;;;;;;11.35;2.28;;;;;;;-143.48;97.68;118439.88;5075306;28;20116;-67
2023/03/23 04:57:39;;;;;;;11.30;2.40;;;;;;;-143.48;96.72;118439.88;5075782;28;20151;-67
2023/03/23 05:00:08;;;;;;;11.40;2.40;;;;;;;-143.48;96.19;118439.88;5075094;28;20443;-67
2023/03/23 05:02:36;;;;;;;9.13;2.55;;;;;;;-143.48;97.04;118439.88;5076349;28;20025;-67
2023/03/23 05:05:01;;;;;;;11.05;2.28;;;;;;;-143.48;98.06;118439.88;5076374;28;20028;-67
2023/03/23 05:07:26;;;;;;;11.20;2.10;;;;;;;-143.48;97.93;118439.88;5074973;28;20365;-68
2023/03/23 05:09:52;;;;;;;9.55;2.65;;;;;;;-143.48;96.55;118439.88;5075065;28;20082;-67
2023/03/23 05:12:17;;;;;;;11.25;2.20;;;;;;;-143.48;96.91;118439.88;5076353;28;20052;-67
2023/03/23 05:14:43;;;;;;;10.68;2.17;;;;;;;-143.48;96.65;118439.88;5076149;28;20076;-67
2023/03/23 05:17:08;;;;;;;9.82;2.25;;;;;;;-143.48;97.26;118439.88;5076316;28;20020;-66
2023/03/23 05:19:34;;;;;;;9.88;2.20;;;;;;;-143.48;97.74;118439.88;5074689;28;20043;-66
2023/03/23 05:22:02;;;;;;;12.02;2.50;;;;;;;-143.48;97.80;118439.88;5074708;28;20027;-67
2023/03/23 05:24:31;;;;;;;11.25;2.38;;;;;;;-143.48;98.01;118439.88;5075961;28;20425;-67
2023/03/23 05:26:56;;;;;;;8.90;2.33;;;;;;;-143.48;97.45;118439.88;5076002;28;20108;-68
2023/03/23 05:29:23;;;;;;;13.73;2.40;;;;;;;-143.48;98.27;118439.88;5075841;28;20100;-67
2023/03/23 05:31:49;;;;;;;12.43;2.40;;;;;;;-143.48;97.70;118439.88;5075841;28;20028;-67
2023/03/23 05:34:15;;;;;;;10.25;2.58;;;;;;;-143.48;98.14;118439.88;5075836;28;20103;-68
2023/03/23 05:36:43;;;;;;;10.63;2.53;;;;;;;-143.48;99.18;118439.88;5075799;28;20032;-67
2023/03/23 05:39:09;;;;;;;9.55;2.17;;;;;;;-143.48;97.34;118439.88;5074829;28;20475;-67
2023/03/23 05:41:35;;;;;;;11.25;2.40;;;;;;;-143.48;98.48;118439.88;5075663;28;20081;-67
2023/03/23 05:44:00;;;;;;;13.88;2.50;;;;;;;-143.48;98.89;118439.88;5073089;28;20111;-67
2023/03/23 05:46:26;;;;;;;16.90;2.55;;;;;;;-143.48;100.00;118439.88;5075676;28;20494;-67
2023/03/23 05:48:51;;;;;;;8.05;2.53;;;;;;;-143.48;100.00;118439.88;5074239;28;20418;-68
2023/03/23 05:51:18;;;;;;;16.05;3.30;;;;;;;-143.48;100.00;118439.88;5074333;28;20052;-67
2023/03/23 05:53:43;;;;;;;11.93;3.10;;;;;;;-143.48;100.00;118439.88;5073941;28;20048;-67
2023/03/23 05:56:09;;;;;;;10.32;3.00;;;;;;;-143.48;100.00;118439.88;5075482;28;20028;-67
2023/03/23 05:58:34;;;;;;;14.43;3.53;;;;;;;-143.48;100.00;118439.88;5075477;28;20483;-67
2023/03/23 06:00:59;;;;;;;14.80;3.83;;;;;;;-143.48;100.00;118439.88;5074176;28;20377;-67
2023/03/23 06:03:25;;;;;;;16.20;3.83;;;;;;;-143.48;100.00;118439.88;5075399;28;20043;-67
2023/03/23 06:05:50;;;;;;;11.75;3.15;;;;;;;-143.48;100.00;118439.88;5075273;28;20115;-67
2023/03/23 06:08:16;;;;;;;15.70;3.40;;;;;;;-143.48;100.00;118439.88;5076030;28;20031;-67
2023/03/23 06:10:42;;;;;;;10.40;2.97;;;;;;;-143.48;100.00;118439.88;5074654;28;20023;-67
2023/03/23 06:13:07;;;;;;;15.43;3.40;;;;;;;-143.48;100.00;118439.88;5074773;28;20036;-67
2023/03/23 06:15:32;;;;;;;13.00;3.58;;;;;;;-143.48;100.00;118439.88;5075053;28;20047;-67
2023/03/23 06:17:59;;;;;;;10.52;3.55;;;;;;;-143.48;100.00;118439.88;5074874;28;20016;-66
2023/03/23 06:20:24;;;;;;;12.35;3.22;;;;;;;-143.48;100.00;118439.88;5075015;28;20073;-67
2023/03/23 06:22:51;;;;;;;12.82;3.08;;;;;;;-143.48;100.00;118439.88;5074905;28;20501;-66
2023/03/23 06:25:17;;;;;;;12.93;3.22;;;;;;;-143.48;100.00;118439.88;5074926;28;20494;-66
2023/03/23 06:27:43;;;;;;;16.55;3.35;;;;;;;-143.48;100.00;118439.88;5074642;28;20021;-66
2023/03/23 06:30:09;;;;;;;13.45;3.03;;;;;;;-143.48;100.00;118439.88;5074745;28;20028;-66
2023/03/23 06:32:35;;;;;;;14.05;2.80;;;;;;;-143.48;100.00;118439.88;5074710;28;20104;-66
2023/03/23 06:35:01;;;;;;;13.27;3.00;;;;;;;-143.48;100.00;118439.88;5074657;28;20060;-67
2023/03/23 06:37:26;;;;;;;15.10;3.25;;;;;;;-143.48;100.00;118439.88;5074463;28;20020;-66
2023/03/23 06:39:52;;;;;;;14.65;3.22;;;;;;;-143.48;100.00;118439.88;5074425;28;20023;-66
2023/03/23 06:42:18;;;;;;;9.68;2.92;;;;;;;-143.48;100.00;118439.88;5074433;28;20035;-67
2023/03/23 06:44:43;;;;;;;13.32;3.05;;;;;;;-143.48;100.00;118439.88;5074462;28;20067;-66
2023/03/23 06:47:09;;;;;;;11.30;3.00;;;;;;;-143.48;100.00;118439.88;5074387;28;20082;-66
2023/03/23 06:49:35;;;;;;;12.02;2.70;;;;;;;-143.48;100.00;118439.88;5074127;28;20032;-67
2023/03/23 06:52:01;;;;;;;11.02;3.45;;;;;;;-143.48;100.00;118439.88;5074227;28;20020;-66
2023/03/23 06:54:27;;;;;;;14.38;3.17;;;;;;;-143.48;100.00;118439.88;5073946;28;20048;-66
2023/03/23 06:56:53;;;;;;;9.98;3.30;;;;;;;-143.48;100.00;118439.88;5074624;28;20032;-67
2023/03/23 06:59:19;;;;;;;17.65;3.97;;;;;;;-143.48;100.00;118439.88;5072866;28;20422;-67
2023/03/23 07:01:46;;;;;;;13.20;3.40;;;;;;;-143.48;100.00;118439.88;5072750;28;20044;-65
2023/03/23 07:04:11;;;;;;;10.80;2.97;;;;;;;-143.48;99.91;118439.88;5074039;28;20100;-67
2023/03/23 07:06:37;;;;;;;8.90;3.05;;;;;;;-143.48;100.00;118439.88;5074085;28;20055;-67
2023/03/23 07:09:03;;;;;;;13.85;3.55;;;;;;;-143.48;99.27;118439.88;5073860;28;20574;-67
2023/03/23 07:11:28;;;;;;;10.80;3.35;;;;;;;-143.48;99.20;118439.88;5072605;28;20032;-66
2023/03/23 07:13:53;;;;;;;15.00;3.55;;;;;;;-143.48;99.38;118439.88;5073887;28;20063;-67
2023/03/23 07:16:19;;;;;;;15.55;3.50;;;;;;;-143.48;99.10;118439.88;5074539;28;20031;-66
2023/03/23 07:18:44;;;;;;;19.65;4.15;;;;;;;-143.48;98.50;118439.88;5073161;28;20539;-67
2023/03/23 07:21:10;;;;;;;14.80;3.83;;;;;;;-143.48;98.34;118439.88;5072438;28;20098;-67
2023/03/23 07:23:35;;;;;;;16.08;3.88;;;;;;;-143.48;97.36;118439.88;5073675;28;20475;-66
2023/03/23 07:26:03;;;;;;;16.63;4.05;;;;;;;-143.48;96.09;118439.88;5072414;28;20048;-66
2023/03/23 07:28:28;;;;;;;14.95;3.35;;;;;;;-143.48;95.33;118439.88;5073602;28;20104;-66
2023/03/23 07:30:53;;;;;;;16.63;3.90;;;;;;;-143.48;95.45;118439.88;5073465;28;20063;-65
2023/03/23 07:33:19;;;;;;;14.77;3.30;;;;;;;-143.48;95.46;118439.88;5072180;28;20028;-66
2023/03/23 07:35:44;;;;;;;12.05;3.00;;;;;;;-143.48;95.74;118439.88;5073581;28;20024;-65
2023/03/23 07:38:09;;;;;;;10.25;3.08;;;;;;;-143.48;95.98;118439.88;5073376;28;20527;-65
2023/03/23 07:40:35;;;;;;;8.85;3.03;;;;;;;-143.48;97.04;118439.88;5073288;28;20032;-67
2023/03/23 07:43:02;;;;;;;12.80;2.90;;;;;;;-143.48;96.47;118439.88;5073571;28;20476;-66
2023/03/23 07:45:28;;;;;;;15.70;3.08;;;;;;;-143.48;96.00;118439.88;5073974;28;20516;-67
2023/03/23 07:47:54;;;;;;;16.60;3.25;;;;;;;-143.48;95.75;118439.88;5072240;28;20028;-66
2023/03/23 07:50:24;;;;;;;13.18;3.13;;;;;;;-143.48;95.59;118439.88;5073363;28;20028;-66
2023/03/23 07:52:58;;;;;;;14.02;3.25;;;;;;;-143.48;95.08;118439.88;5072148;28;20106;-66
2023/03/23 07:55:25;;;;;;;11.30;2.47;;;;;;;-143.48;93.66;118439.88;5072631;28;20057;-67
2023/03/23 07:57:53;;;;;;;13.27;2.83;;;;;;;-143.48;93.05;118439.88;5072668;28;20023;-68
2023/03/23 08:00:23;;;;;;;15.77;3.25;;;;;;;-143.48;93.51;118439.88;5073193;28;20415;-67
2023/03/23 08:02:51;;;;;;;10.88;2.55;;;;;;;-143.48;94.30;118439.88;5071959;28;20035;-66
2023/03/23 08:05:17;;;;;;;9.90;2.78;;;;;;;-143.48;92.40;118439.88;5072910;28;20116;-66
2023/03/23 08:07:44;;;;;;;13.60;2.72;;;;;;;-143.48;92.51;118439.88;5071003;28;20020;-67
2023/03/23 08:10:11;;;;;;;11.90;2.70;;;;;;;-143.48;88.46;118439.88;5071866;28;20033;-66
2023/03/23 08:12:41;;;;;;;12.27;2.75;;;;;;;-143.48;90.08;118439.88;5071790;28;20028;-68
2023/03/23 08:15:07;;;;;;;14.68;2.80;;;;;;;-143.48;90.43;118439.88;5073092;28;20025;-66
2023/03/23 08:17:34;;;;;;;11.65;2.47;;;;;;;-143.48;86.44;118439.88;5071714;28;20016;-67
2023/03/23 08:20:00;;;;;;;11.43;2.60;;;;;;;-143.48;89.73;118439.88;5071621;28;20511;-66
2023/03/23 08:22:25;;;;;;;13.82;2.67;;;;;;;-143.48;90.28;118439.88;5072997;28;20054;-66
2023/03/23 08:24:51;;;;;;;13.93;2.92;;;;;;;-143.48;89.79;118439.88;5072871;28;20025;-67
2023/03/23 08:27:16;;;;;;;11.75;2.28;;;;;;;-143.48;90.44;118439.88;5071719;28;20458;-66
2023/03/23 08:29:45;;;;;;;9.18;2.03;;;;;;;-143.48;90.99;118439.88;5072722;28;20021;-67
2023/03/23 08:32:10;;;;;;;9.82;2.40;;;;;;;-143.48;90.66;118439.88;5072875;28;20025;-67
2023/03/23 08:34:36;;;;;;;9.98;2.40;;;;;;;-143.48;91.08;118439.88;5072934;28;20357;-66
2023/03/23 08:37:01;;;;;;;10.30;2.58;;;;;;;-143.48;90.32;118439.88;5072848;28;20365;-66
2023/03/23 08:39:27;;;;;;;9.48;2.78;;;;;;;-143.48;86.45;118439.88;5072735;28;20048;-66
2023/03/23 08:41:53;;;;;;;12.35;2.63;;;;;;;-143.48;77.62;118439.88;5072766;28;20029;-66
2023/03/23 08:44:18;;;;;;;10.88;2.85;;;;;;;-143.48;69.93;118439.88;5072675;28;20082;-67
2023/03/23 08:46:44;;;;;;;10.43;2.70;;;;;;;-143.48;62.52;118439.88;5072813;28;20020;-67
2023/03/23 08:49:09;;;;;;;11.73;2.67;;;;;;;-143.48;64.21;118439.88;5072595;28;20032;-68
2023/03/23 08:51:35;;;;;;;10.20;2.78;;;;;;;-143.48;70.16;118439.88;5072737;28;20029;-68
2023/03/23 08:54:01;;;;;;;13.02;2.65;;;;;;;-143.48;76.11;118439.88;5072482;28;20087;-68
2023/03/23 08:56:27;;;;;;;11.73;2.65;;;;;;;-143.48;68.60;118439.88;5072467;28;20056;-67
2023/03/23 08:58:52;;;;;;;11.82;2.75;;;;;;;-143.48;62.09;118439.88;5071351;28;20027;-68
2023/03/23 09:01:18;;;;;;;9.60;2.67;;;;;;;-143.48;59.83;118439.88;5072322;28;20027;-69
2023/03/23 09:03:44;;;;;;;12.73;3.05;;;;;;;-143.48;58.10;118439.88;5072637;28;20056;-69
2023/03/23 09:06:12;;;;;;;11.88;3.13;;;;;;;-143.48;68.43;118439.88;5072437;28;20078;-68
2023/03/23 09:08:37;;;;;;;12.63;3.17;;;;;;;-143.48;69.39;118439.88;5071069;28;20029;-68
2023/03/23 09:11:06;;;;;;;12.18;2.83;;;;;;;-143.48;72.85;118439.88;5072489;28;20387;-67
2023/03/23 09:13:32;;;;;;;11.95;2.92;;;;;;;-143.48;67.39;118439.88;5072457;28;20020;-67
2023/03/23 09:15:57;;;;;;;14.48;3.20;;;;;;;-143.48;68.62;118439.88;5071145;28;20387;-66
2023/03/23 09:18:23;;;;;;;13.20;3.40;;;;;;;-143.48;71.37;118439.88;5072903;28;20031;-67
2023/03/23 09:20:50;;;;;;;16.33;3.10;;;;;;;-143.48;74.27;118439.88;5075986;28;20024;-67
2023/03/23 09:23:16;;;;;;;15.50;3.42;;;;;;;-143.48;76.25;118439.88;5075667;28;20392;-68
2023/03/23 09:25:42;;;;;;;13.18;3.38;;;;;;;-143.48;73.73;118439.88;5075957;28;20028;-68
2023/03/23 09:28:07;;;;;;;14.00;3.22;;;;;;;-143.48;66.86;118439.88;5074632;28;20540;-68
2023/03/23 09:30:36;;;;;;;16.52;3.17;;;;;;;-143.48;70.84;118439.88;5075202;28;20103;-68
2023/03/23 09:33:03;;;;;;;14.60;3.67;;;;;;;-143.48;70.17;118439.88;5073718;28;20494;-68
2023/03/23 09:35:31;;;;;;;12.57;2.88;;;;;;;-143.48;74.69;118439.88;5072286;28;20170;-68
2023/03/23 09:37:56;;;;;;;14.52;3.42;;;;;;;-143.48;74.85;118439.88;5073765;28;20104;-69
2023/03/23 09:40:30;;;;;;;19.67;3.20;;;;;;;-143.48;63.64;118439.88;5073688;28;20146;-68
2023/03/23 09:43:17;;;;;;;18.38;3.72;;;;;;;-143.48;72.07;118439.88;5073161;28;20380;-68
2023/03/23 09:45:51;;;;;;;21.77;3.30;;;;;;;-143.48;73.00;118439.88;5073798;28;20016;-67
2023/03/23 09:48:59;;;;;;;15.95;3.45;;;;;;;-143.48;73.64;118439.88;5075369;28;20029;-68
2023/03/23 09:51:51;;;;;;;13.77;3.38;;;;;;;-143.48;73.00;118439.88;5063975;28;20052;-68
2023/03/23 09:54:39;;;;;;;14.50;3.20;;;;;;;-143.48;72.03;118439.88;5063389;28;20122;-69
2023/03/23 09:57:14;;;;;;;19.67;3.72;;;;;;;-143.48;72.65;118439.88;5073000;28;20055;-67
2023/03/23 10:00:27;;;;;;;21.05;3.42;;;;;;;-143.48;70.31;118439.88;5073056;28;20020;-68
2023/03/23 10:03:17;;;;;;;15.82;3.65;;;;;;;-143.48;70.48;118439.88;5069797;28;20040;-67
2023/03/23 10:05:47;;;;;;;17.73;3.30;;;;;;;-143.48;70.02;118439.88;5074236;28;20020;-68
2023/03/23 10:08:18;;;;;;;17.95;3.50;;;;;;;-143.48;69.54;118439.88;5072921;28;20032;-68
2023/03/23 10:10:43;;;;;;;19.75;3.80;;;;;;;-143.48;71.18;118439.88;5074866;28;20488;-68
2023/03/23 10:13:39;;;;;;;17.63;3.28;;;;;;;-143.48;67.15;118439.88;5074645;28;20170;-68
2023/03/23 10:16:09;;;;;;;18.70;3.42;;;;;;;-143.48;65.91;118439.88;5055397;28;20039;-67
2023/03/23 10:18:43;;;;;;;19.20;3.42;;;;;;;-143.48;67.67;118439.88;5073062;28;20020;-66
2023/03/23 10:21:17;;;;;;;16.55;2.92;;;;;;;-143.48;68.39;118439.88;5072879;28;20025;-67
2023/03/23 10:23:51;;;;;;;17.63;3.42;;;;;;;-143.48;68.21;118439.88;5072786;28;20059;-67
2023/03/23 10:26:41;;;;;;;12.18;2.92;;;;;;;-143.48;66.49;118439.88;5072882;28;20016;-68
2023/03/23 10:29:28;;;;;;;13.18;2.65;;;;;;;-143.48;68.21;118439.88;5071038;28;20025;-68
2023/03/23 10:32:04;;;;;;;13.82;2.88;;;;;;;-143.48;63.43;118439.88;5072173;28;20107;-68
2023/03/23 10:34:45;;;;;;;14.18;3.10;;;;;;;-143.48;63.92;118439.88;5072583;28;20029;-69
2023/03/23 10:37:20;;;;;;;15.48;2.78;;;;;;;-143.48;65.44;118439.88;5071313;28;20027;-67
2023/03/23 10:39:55;;;;;;;14.18;2.92;;;;;;;-143.48;67.23;118439.88;5072765;28;20491;-66
2023/03/23 10:42:29;;;;;;;12.85;3.05;;;;;;;-143.48;63.91;118439.88;5071766;28;20055;-66
2023/03/23 10:44:56;;;;;;;18.52;3.05;;;;;;;-143.48;63.75;118439.88;5074283;28;20424;-66
2023/03/23 10:47:22;;;;;;;14.38;2.97;;;;;;;-143.48;60.03;118439.88;5074377;28;20027;-66
2023/03/23 10:49:51;;;;;;;18.58;3.40;;;;;;;-143.48;64.03;118439.88;5074258;28;20028;-66
2023/03/23 10:52:38;;;;;;;14.75;2.85;;;;;;;-143.48;62.12;118439.88;5072660;28;20124;-66
2023/03/23 10:55:08;;;;;;;14.75;3.05;;;;;;;-143.48;61.68;118439.88;5073930;28;20025;-67
2023/03/23 10:57:36;;;;;;;16.60;3.20;;;;;;;-143.48;58.71;118439.88;5072598;28;20074;-67
2023/03/23 11:00:16;;;;;;;17.98;2.95;;;;;;;-143.48;62.20;118439.88;5072626;28;20115;-67
2023/03/23 11:02:47;;;;;;;16.92;3.50;;;;;;;-143.48;61.06;118439.88;5073694;28;20033;-67
2023/03/23 11:05:18;;;;;;;14.18;2.92;;;;;;;-143.48;62.84;118439.88;5072956;28;20027;-67
2023/03/23 11:07:59;;;;;;;17.00;3.63;;;;;;;-143.48;62.42;118439.88;5072904;28;20111;-67
2023/03/23 11:10:37;;;;;;;15.65;3.30;;;;;;;-143.48;62.97;118439.88;5074094;28;20021;-67
2023/03/23 11:13:04;;;;;;;12.10;2.60;;;;;;;-143.48;65.36;118439.88;5074219;28;20025;-68